Hemavan, Hemavan Airport (ESUT)

NameHemavan Airport
CityHemavan
CountrySweden
ICAOESUT
IATAHMV
Altitude458 m
CoordinatesGoogle Map
Live Air TrafficLiveATC.net
METARESUT 151950Z AUTO 00000KT 9999 NCD 01/01 Q1011
2018-10-15 19:50:00 Wind: North (0°) 0 m/s - Visibility: > 10000 m - Temperature: 1 °C - Dew point: 1 °C - Humidity: 100% - Pressure: 1011 hPa
Statistics

The table below shows the detailed information of all flights to/from Hemavan, Hemavan Airport (ESUT).